Weather History for Monroe, WI

Change the Weather History Date:

Sunday, June 30, 2013

  Actual Average Record
Temperature  
Mean Temperature 68 °F -  
Max Temperature 77 °F 0 °F 91 °F (2002)
Min Temperature 60 °F - 50 °F (2007)
Cooling Degree Days 4    
Growing Degree Days 18 (Base 50)    
Moisture  
Dew Point 55 °F    
Average Humidity 66    
Maximum Humidity 100    
Minimum Humidity 43    
Precipitation  
Precipitation 0.00 in - - ()
Sea Level Pressure  
Sea Level Pressure 29.95 in    
Wind  
Wind Speed 10 mph (North)    
Max Wind Speed 18 mph    
Max Gust Speed 24 mph    
Visibility 10 miles    
Events Rain    
Averages and records for this station are not official NWS values.
T = Trace of Precipitation, MM = Missing Value Source: NWS Daily Summary

Daily Weather History Graph

Daily Weather History Graph

Search for Another Location

Airport:

Trip Planner

Search our weather history database for the weather conditions in past years. The results will help you decide how hot, cold, wet, or windy it might be!

Date:

Astronomy

Jun. 30, 2013 Rise Set
Actual Time 5:24 AM CDT 8:40 PM CDT
Civil Twilight 4:49 AM CDT 9:14 PM CDT
Nautical Twilight 4:04 AM CDT 9:59 PM CDT
Astronomical Twilight 3:09 AM CDT 10:54 PM CDT
Moon 12:29 AM CDT (6/30) 1:49 PM CDT (6/30)
Length of Visible Light 16h 25m
Length of Day
15h 15m
Last Quarter, 45% of the Moon is Illuminated
Jun 30
Last Quarter
Jul 8
New
Jul 15
First Quarter
Jul 22
Full
Jul 29
Last Quarter

Hourly Weather History & Observations

Time (CDT) Temp. Dew Point Humidity Pressure Visibility Wind Dir Wind Speed Gust Speed Precip Events Conditions
12:15 AM 64.0 °F 63.1 °F 97% 29.84 in 10.0 mi North 6.9 mph - N/A   Overcast
12:35 AM 63.5 °F 63.5 °F 100% 29.84 in 10.0 mi North 8.1 mph - N/A   Overcast
12:55 AM 63.9 °F 63.9 °F 100% 29.85 in 10.0 mi North 6.9 mph - N/A   Overcast
1:15 AM 63.9 °F 63.9 °F 100% 29.85 in 10.0 mi North 8.1 mph - N/A   Overcast
1:35 AM 64.0 °F 63.7 °F 99% 29.85 in 10.0 mi North 10.4 mph - N/A   Overcast
1:55 AM 64.4 °F 62.1 °F 92% 29.85 in 10.0 mi NNE 11.5 mph 18.4 mph N/A   Overcast
2:15 AM 64.4 °F 60.1 °F 86% 29.85 in 10.0 mi North 10.4 mph 16.1 mph N/A   Overcast
2:35 AM 64.2 °F 60.3 °F 87% 29.86 in 10.0 mi NNE 10.4 mph - N/A   Overcast
2:55 AM 63.7 °F 61.2 °F 91% 29.86 in 10.0 mi North 10.4 mph - N/A   Overcast
2:56 AM 64.4 °F 60.8 °F 88% 29.86 in 10.0 mi North 9.2 mph - N/A   Overcast
3:15 AM 62.6 °F 61.0 °F 94% 29.86 in 10.0 mi North 9.2 mph - N/A   Mostly Cloudy
3:35 AM 62.6 °F 61.2 °F 95% 29.86 in 10.0 mi North 9.2 mph - N/A   Mostly Cloudy
3:55 AM 63.0 °F 60.4 °F 91% 29.86 in 10.0 mi North 12.7 mph - N/A   Overcast
4:15 AM 62.8 °F 59.9 °F 90% 29.87 in 10.0 mi North 9.2 mph - N/A   Overcast
4:35 AM 62.6 °F 60.8 °F 94% 29.87 in 10.0 mi North 10.4 mph - N/A   Overcast
4:55 AM 62.1 °F 61.2 °F 97% 29.89 in 10.0 mi North 9.2 mph - N/A Rain Light Rain
5:15 AM 61.7 °F 61.0 °F 97% 29.89 in 10.0 mi North 6.9 mph - N/A   Overcast
5:35 AM 61.7 °F 59.7 °F 93% 29.90 in 10.0 mi North 6.9 mph - N/A   Overcast
5:55 AM 61.0 °F 55.8 °F 83% 29.90 in 10.0 mi North 9.2 mph - N/A   Overcast
6:15 AM 60.8 °F 53.6 °F 77% 29.91 in 10.0 mi North 8.1 mph - N/A   Overcast
6:35 AM 60.8 °F 53.8 °F 78% 29.92 in 10.0 mi North 5.8 mph - N/A   Scattered Clouds
6:55 AM 61.9 °F 52.5 °F 71% 29.93 in 10.0 mi North 4.6 mph - N/A   Mostly Cloudy
7:15 AM 62.6 °F 52.0 °F 68% 29.93 in 10.0 mi North 9.2 mph - N/A   Mostly Cloudy
7:35 AM 62.4 °F 51.6 °F 68% 29.93 in 10.0 mi North 8.1 mph - N/A   Scattered Clouds
7:55 AM 61.2 °F 51.4 °F 70% 29.94 in 10.0 mi North 5.8 mph - N/A   Clear
8:15 AM 62.1 °F 52.3 °F 70% 29.94 in 10.0 mi North 6.9 mph - N/A   Clear
8:35 AM 62.6 °F 51.8 °F 68% 29.95 in 10.0 mi North 11.5 mph - N/A   Clear
8:55 AM 64.2 °F 52.0 °F 64% 29.95 in 10.0 mi NNE 11.5 mph 16.1 mph N/A   Clear
9:15 AM 64.4 °F 52.2 °F 64% 29.95 in 10.0 mi NNE 11.5 mph - N/A   Scattered Clouds
9:35 AM 65.7 °F 52.9 °F 63% 29.96 in 10.0 mi North 8.1 mph - N/A   Mostly Cloudy
9:55 AM 66.6 °F 53.6 °F 63% 29.96 in 10.0 mi North 9.2 mph - N/A   Scattered Clouds
10:15 AM 67.6 °F 54.0 °F 61% 29.96 in 10.0 mi North 11.5 mph - N/A   Clear
10:35 AM 68.9 °F 54.5 °F 60% 29.96 in 10.0 mi North 10.4 mph - N/A   Clear
10:55 AM 69.8 °F 54.9 °F 59% 29.96 in 10.0 mi North 10.4 mph - N/A   Clear
11:15 AM 70.3 °F 55.0 °F 58% 29.97 in 10.0 mi North 10.4 mph - N/A   Clear
11:35 AM 71.1 °F 55.2 °F 57% 29.96 in 10.0 mi North 5.8 mph - N/A   Clear
11:55 AM 71.8 °F 55.8 °F 57% 29.96 in 10.0 mi NNW 8.1 mph 16.1 mph N/A   Clear
12:15 PM 72.7 °F 57.2 °F 58% 29.97 in 10.0 mi North 10.4 mph - N/A   Clear
12:35 PM 73.6 °F 57.6 °F 57% 29.97 in 10.0 mi North 11.5 mph - N/A   Scattered Clouds
12:55 PM 74.3 °F 58.8 °F 58% 29.97 in 10.0 mi North 12.7 mph 18.4 mph N/A   Scattered Clouds
1:15 PM 74.5 °F 57.4 °F 55% 29.97 in 10.0 mi North 12.7 mph 18.4 mph N/A   Clear
1:35 PM 74.8 °F 58.1 °F 56% 29.97 in 10.0 mi North 11.5 mph 20.7 mph N/A   Clear
1:55 PM 75.4 °F 58.1 °F 55% 29.97 in 10.0 mi North 11.5 mph 17.3 mph N/A   Clear
2:15 PM 75.9 °F 58.1 °F 54% 29.97 in 10.0 mi North 9.2 mph 21.9 mph N/A   Clear
2:35 PM 77.0 °F 57.7 °F 51% 29.97 in 10.0 mi NNE 18.4 mph 23.0 mph N/A   Scattered Clouds
2:55 PM 77.0 °F 55.6 °F 47% 29.97 in 10.0 mi North 16.1 mph 21.9 mph N/A   Clear
3:15 PM 76.8 °F 55.8 °F 48% 29.97 in 10.0 mi NNE 13.8 mph 20.7 mph N/A   Clear
3:35 PM 77.0 °F 55.4 °F 47% 29.98 in 10.0 mi NNE 16.1 mph 19.6 mph N/A   Clear
3:55 PM 77.0 °F 53.8 °F 44% 29.98 in 10.0 mi North 17.3 mph 23.0 mph N/A   Scattered Clouds
4:15 PM 76.1 °F 53.4 °F 45% 29.98 in 10.0 mi NNE 18.4 mph 23.0 mph N/A   Scattered Clouds
4:35 PM 76.6 °F 52.9 °F 43% 29.98 in 10.0 mi NNE 16.1 mph 23.0 mph N/A   Clear
4:55 PM 77.0 °F 53.2 °F 44% 29.98 in 10.0 mi North 12.7 mph 23.0 mph N/A   Scattered Clouds
5:15 PM 76.5 °F 52.2 °F 43% 29.98 in 10.0 mi North 13.8 mph 21.9 mph N/A   Scattered Clouds
5:35 PM 75.9 °F 51.8 °F 43% 29.99 in 10.0 mi NNE 16.1 mph 24.2 mph N/A   Scattered Clouds
5:55 PM 75.6 °F 52.0 °F 44% 29.99 in 10.0 mi North 13.8 mph 21.9 mph N/A   Scattered Clouds
6:15 PM 74.5 °F 51.6 °F 45% 30.00 in 10.0 mi NNE 12.7 mph 19.6 mph N/A   Clear
6:35 PM 74.1 °F 52.9 °F 47% 30.00 in 10.0 mi NNE 12.7 mph 17.3 mph N/A   Clear
6:55 PM 73.0 °F 52.7 °F 49% 30.00 in 10.0 mi NNE 12.7 mph - N/A   Clear
7:15 PM 72.5 °F 50.7 °F 46% 30.01 in 10.0 mi NNE 11.5 mph - N/A   Clear
7:35 PM 70.9 °F 51.1 °F 49% 30.01 in 10.0 mi NNE 10.4 mph - N/A   Clear
7:55 PM 69.1 °F 52.0 °F 54% 30.01 in 10.0 mi NNE 10.4 mph - N/A   Clear
8:15 PM 66.9 °F 52.0 °F 59% 30.02 in 10.0 mi NNE 9.2 mph - N/A   Clear
8:35 PM 66.2 °F 51.3 °F 59% 30.02 in 10.0 mi NNE 10.4 mph - N/A   Clear
8:55 PM 65.3 °F 50.9 °F 60% 30.03 in 10.0 mi North 9.2 mph - N/A   Clear
9:15 PM 64.2 °F 50.5 °F 61% 30.03 in 10.0 mi North 8.1 mph - N/A   Clear
9:35 PM 62.8 °F 49.5 °F 62% 30.04 in 10.0 mi North 8.1 mph - N/A   Clear
9:55 PM 63.7 °F 47.7 °F 56% 30.05 in 10.0 mi North 6.9 mph - N/A   Clear
10:15 PM 63.7 °F 47.3 °F 55% 30.05 in 10.0 mi North 5.8 mph - N/A   Clear
10:35 PM 62.4 °F 47.5 °F 58% 30.05 in 10.0 mi North 5.8 mph - N/A   Clear
10:55 PM 63.9 °F 46.4 °F 53% 30.05 in 10.0 mi North 6.9 mph - N/A   Clear
11:15 PM 63.0 °F 46.6 °F 55% 30.05 in 10.0 mi North 5.8 mph - N/A   Clear
11:35 PM 62.1 °F 46.9 °F 58% 30.06 in 10.0 mi North 5.8 mph - N/A   Clear
11:55 PM 62.6 °F 46.8 °F 56% 30.06 in 10.0 mi North 4.6 mph - N/A   Clear